Buffalo, New York
Current Conditions -  °F | °C
As of 7:25 PM on Thursday 27 Nov 2014 (Local Time) from KBUF Reporting Station
Light Snow Light Snow  
Wind Chill: 25°   Ceiling: 2800
Heat Index: 31°   Visibility: 7mi
Dew Point: 28°   Wind: 6mph
Humidity: 89%   Direction: 310°NW
Pressure: 30.07"   Gusts: NA
Location:  42.89°N, 78.88°W
Report Text: KBUF 280025Z 31005KT 7SM -SN SCT006 BKN028 OVC044 M01/M02 A3007 RMK AO2 P0000 T10061022
Loading
Personal Weather Stations






























Interactive Weather Map New forecast layout! Learn more

10-Day Weather Forecast

Advertisements
Track Severe Weather on mobile